createdAt,value
2023-04-25T00:01:48.564Z,17.45
2023-04-25T00:04:15.609Z,12.52
2023-04-25T00:06:42.719Z,13.20
2023-04-25T00:09:11.072Z,11.82
2023-04-25T00:11:38.791Z,13.70
2023-04-25T00:14:07.668Z,14.00
2023-04-25T00:16:35.962Z,18.20
2023-04-25T00:19:05.209Z,13.97
2023-04-25T00:21:34.911Z,18.33
2023-04-25T00:24:01.926Z,18.67
2023-04-25T00:26:28.838Z,17.33
2023-04-25T00:28:55.665Z,12.52
2023-04-25T00:31:22.678Z,15.33
2023-04-25T00:33:49.798Z,15.80
2023-04-25T00:36:18.080Z,12.10
2023-04-25T00:38:44.910Z,13.43
2023-04-25T00:41:12.601Z,12.23
2023-04-25T00:43:41.080Z,18.20
2023-04-25T00:46:07.987Z,15.95
2023-04-25T00:48:34.870Z,13.95
2023-04-25T00:51:01.854Z,9.93
2023-04-25T00:53:30.504Z,11.13
2023-04-25T00:55:57.375Z,17.03
2023-04-25T00:58:24.444Z,14.50
2023-04-25T01:00:55.403Z,18.63
2023-04-25T01:03:23.160Z,14.98
2023-04-25T01:05:51.944Z,11.63
2023-04-25T01:08:18.955Z,12.80
2023-04-25T01:10:45.889Z,12.07
2023-04-25T01:13:12.917Z,16.60
2023-04-25T01:15:39.703Z,12.65
2023-04-25T01:18:07.438Z,17.98
2023-04-25T01:20:34.994Z,13.83
2023-04-25T01:23:04.007Z,13.40
2023-04-25T01:25:34.564Z,19.10
2023-04-25T01:28:01.591Z,15.52
2023-04-25T01:30:30.447Z,15.40
2023-04-25T01:32:58.137Z,11.60
2023-04-25T01:35:25.298Z,13.82
2023-04-25T01:37:54.520Z,16.30
2023-04-25T01:40:23.524Z,16.55
2023-04-25T01:42:52.220Z,13.13
2023-04-25T01:45:20.157Z,11.57
2023-04-25T01:47:50.281Z,11.23
2023-04-25T01:50:19.469Z,13.40
2023-04-25T01:52:46.653Z,15.63
2023-04-25T01:55:14.375Z,17.05
2023-04-25T01:57:50.634Z,13.50
2023-04-25T02:00:19.844Z,20.17
2023-04-25T02:02:46.839Z,12.68
2023-04-25T02:05:41.402Z,13.45
2023-04-25T02:08:11.113Z,15.50
2023-04-25T02:10:38.201Z,19.33
2023-04-25T02:13:13.692Z,17.30
2023-04-25T02:15:54.809Z,15.07
2023-04-25T02:18:22.309Z,18.15
2023-04-25T02:20:49.434Z,18.15
2023-04-25T02:23:16.529Z,11.37
2023-04-25T02:25:43.458Z,21.58
2023-04-25T02:28:10.387Z,20.38
2023-04-25T02:30:37.759Z,11.10
2023-04-25T02:33:06.162Z,21.13
2023-04-25T02:35:33.030Z,17.97
2023-04-25T02:37:59.972Z,13.00
2023-04-25T02:40:26.916Z,15.30
2023-04-25T02:42:54.924Z,12.45
2023-04-25T02:45:22.031Z,20.95
2023-04-25T02:47:49.012Z,18.60
2023-04-25T02:50:15.851Z,19.67
2023-04-25T02:52:42.664Z,16.92
2023-04-25T02:55:15.584Z,15.35
2023-04-25T02:57:43.565Z,14.30
2023-04-25T03:00:15.336Z,14.50
2023-04-25T03:02:42.284Z,16.95
2023-04-25T03:05:09.919Z,12.27
2023-04-25T03:07:37.495Z,13.85
2023-04-25T03:10:04.605Z,16.88
2023-04-25T03:12:33.423Z,12.10
2023-04-25T03:15:00.334Z,15.07
2023-04-25T03:17:27.203Z,14.27
2023-04-25T03:19:54.035Z,13.38
2023-04-25T03:22:21.094Z,11.82
2023-04-25T03:24:48.282Z,14.53
2023-04-25T03:27:15.296Z,15.07
2023-04-25T03:29:42.211Z,11.50
2023-04-25T03:32:10.284Z,10.52
2023-04-25T03:34:37.038Z,12.02
2023-04-25T03:37:04.246Z,9.27
2023-04-25T03:39:36.128Z,8.27
2023-04-25T03:42:03.927Z,8.57
2023-04-25T03:44:31.164Z,10.95
2023-04-25T03:46:58.396Z,9.35
2023-04-25T03:49:26.208Z,12.77
2023-04-25T03:52:02.505Z,9.88
2023-04-25T03:54:34.879Z,9.23
2023-04-25T03:57:08.505Z,6.72
2023-04-25T03:59:38.782Z,9.02
2023-04-25T04:02:07.816Z,9.07
2023-04-25T04:04:36.846Z,6.38
2023-04-25T04:07:04.101Z,13.18
2023-04-25T04:09:35.019Z,8.45
2023-04-25T04:12:06.429Z,9.70
2023-04-25T04:14:34.080Z,7.20
2023-04-25T04:17:00.901Z,9.07
2023-04-25T04:19:29.351Z,10.93
2023-04-25T04:22:04.904Z,6.25
2023-04-25T04:24:32.042Z,7.82
2023-04-25T04:27:02.861Z,7.87
2023-04-25T04:29:46.317Z,8.13
2023-04-25T04:32:24.690Z,9.90
2023-04-25T04:34:51.854Z,8.85
2023-04-25T04:37:19.832Z,11.35
2023-04-25T04:39:46.691Z,8.53
2023-04-25T04:42:32.605Z,8.45
2023-04-25T04:45:06.458Z,10.65
2023-04-25T04:47:45.858Z,8.68
2023-04-25T04:50:36.458Z,9.48
2023-04-25T04:53:20.410Z,8.03
2023-04-25T04:56:09.088Z,8.48
2023-04-25T04:58:59.835Z,7.78
2023-04-25T05:01:58.820Z,8.05
2023-04-25T05:04:44.142Z,8.02
2023-04-25T05:07:26.354Z,7.80
2023-04-25T05:10:20.476Z,9.02
2023-04-25T05:12:56.302Z,8.85
2023-04-25T05:15:53.306Z,10.23
2023-04-25T05:18:31.066Z,13.85
2023-04-25T05:21:20.880Z,7.27
2023-04-25T05:23:59.166Z,7.38
2023-04-25T05:26:35.076Z,8.82
2023-04-25T05:29:13.594Z,10.07
2023-04-25T05:32:07.056Z,6.88
2023-04-25T05:34:34.720Z,7.17
2023-04-25T05:37:05.339Z,8.23
2023-04-25T05:39:34.476Z,8.40
2023-04-25T05:42:33.870Z,6.53
2023-04-25T05:45:30.024Z,8.07
2023-04-25T05:48:29.690Z,7.93
2023-04-25T05:51:00.916Z,9.45
2023-04-25T05:53:46.366Z,6.20
2023-04-25T05:56:14.530Z,8.48
2023-04-25T05:58:41.423Z,10.23
2023-04-25T06:01:10.890Z,6.67
2023-04-25T06:03:39.120Z,9.13
2023-04-25T06:06:06.745Z,6.90
2023-04-25T06:08:33.750Z,8.35
2023-04-25T06:11:00.584Z,7.85
2023-04-25T06:13:27.563Z,6.63
2023-04-25T06:15:55.810Z,4.65
2023-04-25T06:18:22.723Z,8.80
2023-04-25T06:20:49.924Z,8.98
2023-04-25T06:23:18.463Z,11.27
2023-04-25T06:25:51.609Z,9.70
2023-04-25T06:28:18.571Z,5.32
2023-04-25T06:30:45.606Z,8.38
2023-04-25T06:33:17.163Z,7.45
2023-04-25T06:35:44.032Z,5.68
2023-04-25T06:38:13.266Z,9.63
2023-04-25T06:40:43.326Z,5.50
2023-04-25T06:43:11.617Z,9.55
2023-04-25T06:45:56.818Z,7.50
2023-04-25T06:48:26.413Z,8.40
2023-04-25T06:50:53.665Z,9.73
2023-04-25T06:53:20.810Z,10.90
2023-04-25T06:55:52.627Z,9.75
2023-04-25T06:58:22.236Z,8.40
2023-04-25T07:01:09.490Z,9.07
2023-04-25T07:03:38.635Z,6.80
2023-04-25T07:06:10.241Z,8.80
2023-04-25T07:08:37.153Z,9.90
2023-04-25T07:11:04.045Z,9.55
2023-04-25T07:13:30.965Z,6.50
2023-04-25T07:15:58.011Z,7.83
2023-04-25T07:18:25.526Z,8.00
2023-04-25T07:20:52.734Z,8.55
2023-04-25T07:23:19.926Z,6.10
2023-04-25T07:25:47.887Z,7.65
2023-04-25T07:28:19.737Z,9.80
2023-04-25T07:30:47.782Z,10.35
2023-04-25T07:33:14.929Z,7.18
2023-04-25T07:35:42.046Z,10.02
2023-04-25T07:38:08.950Z,10.60
2023-04-25T07:40:36.461Z,7.20
2023-04-25T07:43:07.248Z,6.82
2023-04-25T07:45:41.564Z,4.90
2023-04-25T07:48:08.476Z,4.38
2023-04-25T07:50:37.820Z,4.10
2023-04-25T07:53:04.992Z,4.40
2023-04-25T07:55:37.488Z,5.53
2023-04-25T07:58:11.377Z,3.22
2023-04-25T08:00:40.939Z,2.92
2023-04-25T08:03:25.256Z,2.67
2023-04-25T08:05:53.667Z,2.50
2023-04-25T08:08:21.246Z,5.03
2023-04-25T08:10:49.315Z,2.83
2023-04-25T08:13:17.296Z,5.40
2023-04-25T08:15:45.317Z,7.80
2023-04-25T08:18:12.271Z,5.20
2023-04-25T08:20:39.497Z,4.95
2023-04-25T08:23:08.523Z,6.90
2023-04-25T08:25:48.273Z,7.90
2023-04-25T08:28:17.869Z,5.78
2023-04-25T08:30:45.602Z,6.20
2023-04-25T08:33:14.569Z,5.57
2023-04-25T08:35:53.925Z,7.82
2023-04-25T08:38:20.937Z,6.53
2023-04-25T08:40:51.584Z,6.70
2023-04-25T08:43:20.785Z,5.80
2023-04-25T08:45:48.550Z,6.60
2023-04-25T08:48:27.632Z,6.30
2023-04-25T08:50:56.303Z,6.97
2023-04-25T08:53:31.973Z,9.05
2023-04-25T08:56:05.187Z,7.10
2023-04-25T08:58:36.600Z,6.53
2023-04-25T09:01:04.613Z,6.93
2023-04-25T09:03:37.620Z,6.07
2023-04-25T09:06:05.032Z,5.68
2023-04-25T09:08:31.983Z,5.70
2023-04-25T09:10:58.834Z,6.05
2023-04-25T09:13:27.931Z,4.32
2023-04-25T09:16:23.788Z,6.63
2023-04-25T09:19:28.358Z,8.35
2023-04-25T09:22:05.878Z,7.27
2023-04-25T09:24:37.090Z,6.53
2023-04-25T09:27:12.119Z,7.25
2023-04-25T09:29:41.859Z,5.07
2023-04-25T09:32:20.941Z,3.72
2023-04-25T09:34:55.084Z,8.33
2023-04-25T09:37:24.988Z,4.90
2023-04-25T09:40:12.063Z,4.10
2023-04-25T09:43:00.137Z,7.07
2023-04-25T09:45:30.325Z,6.22
2023-04-25T09:47:58.966Z,7.27
2023-04-25T09:50:30.692Z,5.03
2023-04-25T09:53:07.982Z,2.67
2023-04-25T09:55:52.028Z,2.72
2023-04-25T09:58:19.055Z,4.25
2023-04-25T10:00:46.151Z,3.53
2023-04-25T10:03:26.776Z,3.03
2023-04-25T10:06:18.691Z,2.72
2023-04-25T10:08:46.701Z,4.55
2023-04-25T10:11:16.854Z,3.83
2023-04-25T10:13:44.198Z,3.37
2023-04-25T10:16:11.424Z,4.13
2023-04-25T10:18:38.539Z,4.03
2023-04-25T10:21:07.409Z,4.78
2023-04-25T10:23:35.684Z,3.80
2023-04-25T10:26:03.002Z,3.60
2023-04-25T10:28:29.842Z,2.47
2023-04-25T10:31:04.963Z,6.10
2023-04-25T10:33:36.015Z,4.60
2023-04-25T10:36:23.931Z,4.95
2023-04-25T10:38:52.062Z,4.60
2023-04-25T10:41:20.332Z,6.13
2023-04-25T10:43:49.962Z,5.80
2023-04-25T10:46:17.867Z,4.28
2023-04-25T10:48:50.204Z,5.78
2023-04-25T10:51:30.795Z,3.77
2023-04-25T10:54:00.942Z,7.22
2023-04-25T10:56:33.283Z,5.70
2023-04-25T10:59:16.465Z,6.20
2023-04-25T11:01:54.098Z,6.18
2023-04-25T11:04:26.732Z,5.20
2023-04-25T11:07:11.428Z,5.63
2023-04-25T11:09:42.255Z,6.88
2023-04-25T11:12:10.612Z,5.65
2023-04-25T11:14:37.517Z,4.32
2023-04-25T11:17:04.765Z,5.03
2023-04-25T11:19:31.934Z,3.65
2023-04-25T11:22:01.061Z,4.90
2023-04-25T11:24:32.136Z,5.32
2023-04-25T11:27:00.073Z,4.43
2023-04-25T11:29:31.475Z,4.37
2023-04-25T11:31:59.159Z,5.28
2023-04-25T11:34:27.026Z,4.55
2023-04-25T11:36:54.480Z,4.90
2023-04-25T11:39:22.412Z,2.33
2023-04-25T11:41:49.370Z,3.93
2023-04-25T11:44:20.098Z,5.30
2023-04-25T11:46:47.571Z,2.55
2023-04-25T11:49:15.684Z,3.90
2023-04-25T11:51:44.540Z,4.93
2023-04-25T11:54:12.764Z,5.40
2023-04-25T11:56:43.719Z,4.78
2023-04-25T11:59:11.581Z,6.50
2023-04-25T12:01:42.099Z,6.63
2023-04-25T12:04:27.197Z,5.32
2023-04-25T12:06:56.196Z,5.57
2023-04-25T12:09:34.425Z,6.90
2023-04-25T12:12:04.987Z,6.60
2023-04-25T12:14:34.266Z,11.13
2023-04-25T12:17:03.454Z,6.95
2023-04-25T12:19:37.832Z,5.83
2023-04-25T12:22:19.397Z,8.65
2023-04-25T12:24:46.275Z,9.05
2023-04-25T12:27:20.033Z,6.80
2023-04-25T12:29:55.557Z,6.00
2023-04-25T12:32:23.787Z,6.20
2023-04-25T12:34:50.892Z,5.30
2023-04-25T12:37:17.783Z,5.20
2023-04-25T12:39:44.667Z,4.30
2023-04-25T12:42:14.361Z,6.68
2023-04-25T12:44:41.745Z,6.43
2023-04-25T12:47:08.971Z,5.80
2023-04-25T12:49:35.912Z,4.00
2023-04-25T12:52:02.712Z,4.82
2023-04-25T12:54:29.646Z,4.85
2023-04-25T12:56:56.455Z,6.13
2023-04-25T12:59:23.368Z,6.80
2023-04-25T13:01:50.507Z,6.57
2023-04-25T13:04:17.767Z,5.28
2023-04-25T13:06:44.758Z,6.97
2023-04-25T13:09:13.264Z,6.33
2023-04-25T13:11:41.509Z,7.55
2023-04-25T13:14:08.864Z,5.50
2023-04-25T13:16:36.058Z,4.60
2023-04-25T13:19:02.975Z,4.60
2023-04-25T13:21:33.285Z,6.17
2023-04-25T13:24:00.276Z,4.90
2023-04-25T13:26:27.234Z,6.80
2023-04-25T13:28:54.092Z,6.75
2023-04-25T13:31:20.826Z,5.78
2023-04-25T13:33:47.673Z,4.47
2023-04-25T13:36:14.543Z,4.25
2023-04-25T13:38:44.927Z,7.75
2023-04-25T13:41:16.633Z,8.38
2023-04-25T13:43:43.560Z,4.72
2023-04-25T13:46:24.763Z,5.70
2023-04-25T13:49:06.209Z,10.82
2023-04-25T13:51:38.892Z,4.30
2023-04-25T13:54:06.005Z,8.27
2023-04-25T13:56:32.881Z,7.63
2023-04-25T13:58:59.899Z,6.90
2023-04-25T14:01:27.617Z,6.30
2023-04-25T14:03:54.662Z,5.30
2023-04-25T14:06:23.962Z,4.95
2023-04-25T14:08:51.706Z,8.95
2023-04-25T14:11:19.294Z,6.27
2023-04-25T14:13:47.051Z,8.73
2023-04-25T14:16:14.060Z,7.05
2023-04-25T14:18:40.952Z,6.45
2023-04-25T14:21:07.780Z,5.50
2023-04-25T14:23:34.680Z,4.87
2023-04-25T14:26:01.567Z,8.20
2023-04-25T14:28:28.599Z,3.67
2023-04-25T14:30:55.656Z,5.57
2023-04-25T14:33:23.333Z,4.40
2023-04-25T14:35:50.740Z,6.60
2023-04-25T14:38:17.655Z,5.85
2023-04-25T14:40:44.450Z,7.28
2023-04-25T14:43:11.412Z,4.30
2023-04-25T14:45:38.315Z,6.22
2023-04-25T14:48:05.388Z,9.90
2023-04-25T14:50:32.252Z,6.68
2023-04-25T14:53:01.450Z,4.75
2023-04-25T14:55:29.033Z,6.00
2023-04-25T14:57:57.570Z,3.65
2023-04-25T15:00:26.203Z,7.43
2023-04-25T15:02:53.224Z,3.75
2023-04-25T15:05:21.107Z,5.25
2023-04-25T15:07:48.865Z,4.93
2023-04-25T15:10:17.065Z,5.38
2023-04-25T15:12:46.331Z,7.03
2023-04-25T15:15:22.600Z,4.65
2023-04-25T15:17:57.230Z,6.38
2023-04-25T15:20:26.002Z,5.35
2023-04-25T15:22:52.860Z,7.95
2023-04-25T15:25:19.695Z,5.43
2023-04-25T15:27:49.164Z,6.72
2023-04-25T15:30:17.564Z,6.82
2023-04-25T15:32:49.564Z,4.97
2023-04-25T15:35:16.522Z,6.80
2023-04-25T15:37:44.014Z,7.43
2023-04-25T15:40:14.614Z,5.70
2023-04-25T15:42:51.462Z,7.97
2023-04-25T15:45:20.782Z,6.05
2023-04-25T15:47:47.919Z,7.32
2023-04-25T15:50:16.183Z,5.83
2023-04-25T15:52:43.783Z,9.07
2023-04-25T15:55:12.915Z,9.95
2023-04-25T15:57:41.961Z,6.85
2023-04-25T16:00:19.413Z,9.68
2023-04-25T16:02:48.400Z,6.57
2023-04-25T16:05:16.438Z,5.05
2023-04-25T16:07:45.142Z,6.13
2023-04-25T16:10:13.293Z,7.82
2023-04-25T16:12:40.831Z,7.43
2023-04-25T16:15:08.135Z,6.27
2023-04-25T16:17:35.432Z,8.10
2023-04-25T16:20:06.440Z,4.25
2023-04-25T16:22:33.311Z,6.10
2023-04-25T16:25:00.306Z,4.65
2023-04-25T16:27:27.214Z,5.43
2023-04-25T16:29:53.968Z,5.93
2023-04-25T16:32:20.873Z,3.08
2023-04-25T16:34:47.748Z,4.03
2023-04-25T16:37:14.510Z,6.40
2023-04-25T16:39:41.512Z,5.43
2023-04-25T16:42:08.327Z,6.47
2023-04-25T16:44:35.412Z,4.60
2023-04-25T16:47:02.588Z,3.28
2023-04-25T16:49:29.423Z,4.30
2023-04-25T16:51:56.264Z,5.53
2023-04-25T16:54:25.532Z,5.55
2023-04-25T16:56:52.750Z,7.18
2023-04-25T16:59:20.054Z,6.63
2023-04-25T17:01:47.036Z,5.80
2023-04-25T17:04:13.923Z,5.23
2023-04-25T17:06:40.849Z,10.55
2023-04-25T17:09:08.157Z,7.93
2023-04-25T17:11:35.024Z,4.03
2023-04-25T17:14:02.043Z,4.63
2023-04-25T17:16:36.635Z,5.30
2023-04-25T17:19:07.552Z,9.18
2023-04-25T17:21:34.513Z,6.57
2023-04-25T17:24:01.397Z,7.03
2023-04-25T17:26:28.832Z,8.15
2023-04-25T17:28:55.898Z,5.77
2023-04-25T17:31:23.873Z,9.57
2023-04-25T17:33:51.020Z,8.02
2023-04-25T17:36:18.254Z,8.52
2023-04-25T17:38:45.254Z,9.50
2023-04-25T17:41:13.251Z,5.07
2023-04-25T17:43:40.269Z,8.20
2023-04-25T17:46:07.308Z,7.95
2023-04-25T17:48:34.325Z,7.97
2023-04-25T17:51:02.695Z,5.47
2023-04-25T17:53:29.543Z,9.57
2023-04-25T17:55:56.385Z,8.93
2023-04-25T17:58:23.274Z,10.95
2023-04-25T18:00:50.201Z,8.50
2023-04-25T18:03:17.405Z,7.53
2023-04-25T18:05:44.364Z,5.47
2023-04-25T18:08:11.369Z,6.57
2023-04-25T18:10:39.044Z,8.57
2023-04-25T18:13:05.966Z,7.47
2023-04-25T18:15:32.758Z,6.93
2023-04-25T18:17:59.872Z,9.17
2023-04-25T18:20:28.490Z,10.07
2023-04-25T18:22:55.833Z,10.45
2023-04-25T18:25:22.616Z,7.97
2023-04-25T18:27:50.631Z,9.02
2023-04-25T18:30:17.557Z,9.60
2023-04-25T18:32:44.535Z,9.43
2023-04-25T18:35:12.189Z,8.40
2023-04-25T18:37:40.399Z,7.05
2023-04-25T18:40:12.820Z,8.25
2023-04-25T18:42:39.759Z,9.10
2023-04-25T18:45:07.332Z,5.20
2023-04-25T18:47:34.119Z,9.15
2023-04-25T18:50:00.947Z,9.35
2023-04-25T18:52:27.838Z,8.73
2023-04-25T18:54:54.732Z,9.00
2023-04-25T18:57:21.666Z,9.75
2023-04-25T18:59:48.828Z,7.40
2023-04-25T19:02:16.576Z,8.73
2023-04-25T19:04:43.947Z,7.60
2023-04-25T19:07:11.143Z,9.63
2023-04-25T19:09:37.986Z,9.48
2023-04-25T19:12:05.132Z,9.85
2023-04-25T19:14:32.934Z,7.10
2023-04-25T19:17:00.231Z,12.15
2023-04-25T19:19:27.497Z,11.63
2023-04-25T19:21:54.470Z,11.20
2023-04-25T19:24:21.467Z,6.38
2023-04-25T19:26:48.378Z,10.30
2023-04-25T19:29:15.430Z,6.68
2023-04-25T19:31:44.165Z,8.13
2023-04-25T19:34:12.202Z,10.48
2023-04-25T19:36:40.303Z,8.68
2023-04-25T19:39:07.702Z,8.40
2023-04-25T19:41:38.623Z,9.35
2023-04-25T19:44:07.447Z,10.70
2023-04-25T19:46:36.807Z,10.98
2023-04-25T19:49:07.178Z,7.78
2023-04-25T19:51:35.723Z,9.32
2023-04-25T19:54:03.048Z,6.80
2023-04-25T19:56:29.928Z,6.80
2023-04-25T19:58:58.399Z,7.13
2023-04-25T20:01:26.261Z,10.02
2023-04-25T20:03:53.561Z,10.57
2023-04-25T20:06:20.909Z,8.43
2023-04-25T20:08:47.844Z,10.57
2023-04-25T20:11:15.153Z,9.93
2023-04-25T20:13:42.119Z,10.63
2023-04-25T20:16:09.125Z,8.45
2023-04-25T20:18:36.100Z,10.13
2023-04-25T20:21:02.962Z,8.63
2023-04-25T20:23:29.828Z,11.27
2023-04-25T20:25:56.972Z,10.52
2023-04-25T20:28:23.922Z,11.27
2023-04-25T20:30:50.997Z,9.60
2023-04-25T20:33:17.888Z,9.00
2023-04-25T20:35:44.765Z,11.48
2023-04-25T20:38:12.135Z,8.48
2023-04-25T20:40:39.049Z,8.77
2023-04-25T20:43:05.935Z,9.55
2023-04-25T20:45:34.529Z,8.67
2023-04-25T20:48:02.835Z,11.20
2023-04-25T20:50:29.763Z,11.20
2023-04-25T20:52:57.367Z,11.18
2023-04-25T20:55:24.681Z,8.77
2023-04-25T20:57:52.023Z,13.17
2023-04-25T21:00:26.569Z,11.38
2023-04-25T21:02:54.759Z,9.32
2023-04-25T21:05:22.397Z,11.20
2023-04-25T21:07:49.799Z,10.32
2023-04-25T21:10:17.374Z,11.07
2023-04-25T21:12:48.157Z,8.90
2023-04-25T21:15:18.085Z,9.13
2023-04-25T21:17:47.374Z,9.35
2023-04-25T21:20:18.668Z,12.07
2023-04-25T21:22:51.177Z,10.00
2023-04-25T21:25:25.467Z,8.55
2023-04-25T21:27:53.247Z,13.38
2023-04-25T21:30:23.406Z,9.88
2023-04-25T21:32:51.971Z,10.35
2023-04-25T21:35:20.524Z,11.87
2023-04-25T21:37:47.915Z,14.18
2023-04-25T21:40:15.340Z,9.43
2023-04-25T21:42:44.760Z,12.20
2023-04-25T21:45:11.908Z,10.82
2023-04-25T21:47:39.181Z,10.10
2023-04-25T21:50:06.478Z,12.65
2023-04-25T21:52:33.860Z,14.68
2023-04-25T21:55:00.677Z,11.07
2023-04-25T21:57:27.548Z,11.80
2023-04-25T21:59:54.500Z,13.60
2023-04-25T22:02:21.501Z,11.85
2023-04-25T22:04:48.719Z,9.80
2023-04-25T22:07:16.043Z,10.43
2023-04-25T22:09:53.892Z,11.02
2023-04-25T22:12:23.313Z,12.30
2023-04-25T22:14:50.803Z,9.20
2023-04-25T22:17:18.777Z,11.02
2023-04-25T22:19:46.666Z,10.68
2023-04-25T22:22:13.467Z,12.27
2023-04-25T22:24:40.356Z,12.13
2023-04-25T22:27:07.248Z,9.95
2023-04-25T22:29:34.113Z,12.85
2023-04-25T22:32:01.580Z,12.88
2023-04-25T22:34:28.688Z,12.98
2023-04-25T22:36:55.761Z,11.73
2023-04-25T22:39:23.188Z,14.65
2023-04-25T22:41:50.044Z,11.57
2023-04-25T22:44:17.775Z,13.15
2023-04-25T22:46:44.507Z,14.77
2023-04-25T22:49:11.940Z,11.67
2023-04-25T22:51:38.812Z,13.30
2023-04-25T22:54:05.888Z,13.88
2023-04-25T22:56:32.891Z,13.48
2023-04-25T22:58:59.755Z,13.23
2023-04-25T23:01:28.913Z,11.93
2023-04-25T23:03:56.274Z,16.50
2023-04-25T23:06:24.649Z,17.30
2023-04-25T23:08:51.623Z,11.73
2023-04-25T23:11:18.965Z,13.70
2023-04-25T23:13:46.195Z,14.97
2023-04-25T23:16:13.052Z,14.82
2023-04-25T23:18:40.950Z,10.82
2023-04-25T23:21:12.082Z,13.13
2023-04-25T23:23:39.094Z,13.52
2023-04-25T23:26:12.328Z,15.20
2023-04-25T23:28:41.648Z,14.10
2023-04-25T23:31:10.329Z,15.20
2023-04-25T23:33:37.514Z,16.23
2023-04-25T23:36:04.770Z,16.38
2023-04-25T23:38:32.545Z,20.17
2023-04-25T23:40:59.455Z,16.88
2023-04-25T23:43:26.234Z,15.77
2023-04-25T23:45:54.113Z,13.13
2023-04-25T23:48:21.255Z,15.88
2023-04-25T23:50:48.054Z,13.53
2023-04-25T23:53:15.217Z,12.75
2023-04-25T23:55:42.413Z,11.38
2023-04-25T23:58:09.320Z,12.93
